KOVS

Boscobel Airport

Boscobel, Wisconsin, USA
METAR KOVS 210519Z AUTO 03006KT 7SM -RA SCT021 SCT055 BKN120 19/17 A2987 RMK AO2 P0001 T01890172
Observed Flight Rules
Aug-21 @ 05:19 UTC (9 hours ago) Visual Flight Rules
Wind Visibility Clouds Conditions
30° at 6 knots 7 miles
  • Scattered at 2,100' AGL
  • Scattered at 5,500' AGL
  • Broken at 12,000' AGL
  • Light Rain
Temperatures Readings Precipitation
Current 19°C / 66°F
Dewpoint 17°C / 63°F
Humidity 88%
Altimeter 29.87" Hg
Pressure 1012 hPa
Elevation 202
Current Rain 0.01
METAR KOVS 210519Z AUTO 03006KT 7SM -RA SCT021 SCT055 BKN120 19/17 A2987 RMK AO2 P0001 T01890172
Observed Flight Rules
Aug-21 @ 05:19 UTC
(9 hours ago)
VFR
Wind Visibility
30° at 6 knots 7 miles
Clouds
  • Scattered at 2,100' AGL
  • Scattered at 5,500' AGL
  • Broken at 12,000' AGL
Conditions
  • Light Rain
Temperature Dewpoint
19°C / 66°F 17°C / 63°F
Humidity Altimeter Pressure
88% 29.87" Hg 1012 hPa
Current Rain
0.01